createdAt,value
2023-05-11T00:00:08.528Z,13.24
2023-05-11T00:03:34.974Z,13.36
2023-05-11T00:06:39.317Z,13.32
2023-05-11T00:09:42.798Z,13.38
2023-05-11T00:12:46.969Z,13.33
2023-05-11T00:15:50.425Z,13.34
2023-05-11T00:18:56.262Z,13.37
2023-05-11T00:22:02.030Z,13.34
2023-05-11T00:25:07.051Z,12.93
2023-05-11T00:28:10.763Z,13.05
2023-05-11T00:31:14.665Z,13.16
2023-05-11T00:34:19.909Z,13.02
2023-05-11T00:37:25.910Z,12.81
2023-05-11T00:40:29.958Z,12.97
2023-05-11T00:43:33.733Z,13.03
2023-05-11T00:46:40.900Z,12.90
2023-05-11T00:49:47.790Z,12.53
2023-05-11T00:52:51.934Z,12.67
2023-05-11T00:55:55.875Z,12.85
2023-05-11T00:58:59.845Z,12.57
2023-05-11T01:02:04.694Z,12.70
2023-05-11T01:05:11.549Z,12.41
2023-05-11T01:08:20.130Z,12.62
2023-05-11T01:11:31.844Z,12.62
2023-05-11T01:14:38.670Z,12.57
2023-05-11T01:17:50.342Z,12.57
2023-05-11T01:21:01.233Z,12.83
2023-05-11T01:24:25.232Z,12.78
2023-05-11T01:27:48.131Z,12.76
2023-05-11T01:30:56.370Z,12.91
2023-05-11T01:34:04.291Z,12.58
2023-05-11T01:37:13.841Z,12.56
2023-05-11T01:40:19.998Z,12.69
2023-05-11T01:43:26.939Z,12.23
2023-05-11T01:46:35.115Z,12.45
2023-05-11T01:49:39.898Z,12.07
2023-05-11T01:52:46.201Z,12.27
2023-05-11T01:55:51.483Z,12.06
2023-05-11T01:58:58.358Z,12.13
2023-05-11T02:02:05.898Z,12.04
2023-05-11T02:05:11.953Z,12.29
2023-05-11T02:08:17.972Z,12.28
2023-05-11T02:11:26.020Z,12.35
2023-05-11T02:14:34.236Z,12.48
2023-05-11T02:17:42.109Z,12.30
2023-05-11T02:20:48.474Z,12.41
2023-05-11T02:23:53.950Z,12.67
2023-05-11T02:26:57.717Z,12.73
2023-05-11T02:30:01.994Z,12.77
2023-05-11T02:33:09.584Z,12.63
2023-05-11T02:36:20.255Z,12.71
2023-05-11T02:39:31.336Z,12.86
2023-05-11T02:42:40.122Z,12.86
2023-05-11T02:45:47.561Z,12.68
2023-05-11T02:48:56.297Z,12.52
2023-05-11T02:52:04.125Z,12.74
2023-05-11T02:55:13.090Z,12.74
2023-05-11T02:58:17.209Z,12.75
2023-05-11T03:01:26.388Z,12.63
2023-05-11T03:04:33.369Z,12.75
2023-05-11T03:07:37.867Z,12.58
2023-05-11T03:10:42.827Z,12.69
2023-05-11T03:13:47.234Z,12.67
2023-05-11T03:16:53.672Z,12.70
2023-05-11T03:20:03.563Z,12.58
2023-05-11T03:23:10.525Z,12.09
2023-05-11T03:26:18.352Z,12.56
2023-05-11T03:29:24.220Z,12.65
2023-05-11T03:32:29.409Z,12.55
2023-05-11T03:35:38.768Z,12.75
2023-05-11T03:38:44.071Z,12.84
2023-05-11T03:41:53.691Z,12.80
2023-05-11T03:44:59.944Z,12.80
2023-05-11T03:48:06.392Z,12.75
2023-05-11T03:51:13.066Z,12.97
2023-05-11T03:54:17.504Z,12.87
2023-05-11T03:57:21.518Z,13.06
2023-05-11T04:00:25.330Z,12.92
2023-05-11T04:03:30.632Z,12.83
2023-05-11T04:06:36.402Z,13.07
2023-05-11T04:09:51.106Z,13.14
2023-05-11T04:12:55.056Z,13.25
2023-05-11T04:15:59.287Z,13.06
2023-05-11T04:19:03.065Z,13.27
2023-05-11T04:22:08.284Z,13.10
2023-05-11T04:25:13.764Z,13.17
2023-05-11T04:28:18.695Z,13.06
2023-05-11T04:31:22.217Z,12.90
2023-05-11T04:34:27.373Z,13.01
2023-05-11T04:37:33.680Z,13.16
2023-05-11T04:40:39.426Z,13.20
2023-05-11T04:43:46.634Z,13.02
2023-05-11T04:46:55.108Z,12.91
2023-05-11T04:49:58.836Z,13.05
2023-05-11T04:53:04.152Z,12.93
2023-05-11T04:56:08.409Z,12.99
2023-05-11T04:59:12.637Z,12.96
2023-05-11T05:02:16.455Z,12.78
2023-05-11T05:05:20.669Z,12.88
2023-05-11T05:08:26.413Z,12.86
2023-05-11T05:11:30.792Z,12.83
2023-05-11T05:14:35.011Z,13.05
2023-05-11T05:17:39.228Z,13.08
2023-05-11T05:20:42.791Z,13.13
2023-05-11T05:23:50.508Z,13.35
2023-05-11T05:27:12.826Z,13.34
2023-05-11T05:30:17.957Z,13.43
2023-05-11T05:33:21.943Z,13.56
2023-05-11T05:36:26.705Z,13.37
2023-05-11T05:39:31.771Z,13.18
2023-05-11T05:42:35.949Z,13.38
2023-05-11T05:45:40.553Z,13.10
2023-05-11T05:48:45.610Z,12.95
2023-05-11T05:51:50.878Z,12.65
2023-05-11T05:54:57.303Z,13.02
2023-05-11T05:58:01.690Z,13.22
2023-05-11T06:01:05.524Z,13.18
2023-05-11T06:04:09.530Z,13.28
2023-05-11T06:07:14.305Z,13.44
2023-05-11T06:10:19.947Z,13.48
2023-05-11T06:13:24.552Z,12.81
2023-05-11T06:16:28.289Z,13.41
2023-05-11T06:19:35.542Z,13.51
2023-05-11T06:22:39.546Z,13.61
2023-05-11T06:25:45.451Z,13.26
2023-05-11T06:28:49.541Z,13.37
2023-05-11T06:31:54.540Z,12.95
2023-05-11T06:34:58.606Z,13.38
2023-05-11T06:38:02.621Z,13.18
2023-05-11T06:41:09.723Z,13.28
2023-05-11T06:44:14.342Z,13.54
2023-05-11T06:47:21.174Z,13.04
2023-05-11T06:50:27.529Z,13.38
2023-05-11T06:53:31.580Z,13.41
2023-05-11T06:56:39.794Z,13.91
2023-05-11T06:59:44.168Z,13.95
2023-05-11T07:02:48.102Z,13.71
2023-05-11T07:05:52.029Z,13.78
2023-05-11T07:08:56.649Z,14.34
2023-05-11T07:12:01.505Z,14.42
2023-05-11T07:15:06.247Z,14.67
2023-05-11T07:18:09.858Z,14.06
2023-05-11T07:21:14.485Z,14.72
2023-05-11T07:24:18.295Z,15.15
2023-05-11T07:27:23.672Z,15.27
2023-05-11T07:30:27.595Z,15.65
2023-05-11T07:33:33.524Z,15.77
2023-05-11T07:36:37.071Z,15.54
2023-05-11T07:39:40.942Z,15.39
2023-05-11T07:42:45.945Z,15.75
2023-05-11T07:45:49.905Z,16.02
2023-05-11T07:49:03.547Z,15.59
2023-05-11T07:52:17.664Z,15.41
2023-05-11T07:55:25.041Z,15.58
2023-05-11T07:58:30.377Z,15.87
2023-05-11T08:01:35.087Z,15.81
2023-05-11T08:04:39.673Z,15.98
2023-05-11T08:07:45.293Z,15.93
2023-05-11T08:10:52.099Z,15.91
2023-05-11T08:13:57.514Z,15.89
2023-05-11T08:17:01.264Z,15.85
2023-05-11T08:20:06.773Z,15.84
2023-05-11T08:23:17.852Z,15.83
2023-05-11T08:26:22.037Z,15.73
2023-05-11T08:29:27.497Z,15.74
2023-05-11T08:32:31.559Z,15.35
2023-05-11T08:35:35.268Z,15.46
2023-05-11T08:38:42.733Z,15.62
2023-05-11T08:41:48.581Z,15.47
2023-05-11T08:45:02.551Z,15.71
2023-05-11T08:48:07.171Z,15.48
2023-05-11T08:51:11.391Z,15.40
2023-05-11T08:54:15.051Z,15.56
2023-05-11T08:57:20.402Z,15.36
2023-05-11T09:00:26.509Z,15.29
2023-05-11T09:03:31.882Z,15.35
2023-05-11T09:06:36.531Z,15.48
2023-05-11T09:09:42.629Z,15.55
2023-05-11T09:12:46.488Z,15.63
2023-05-11T09:15:52.099Z,15.67
2023-05-11T09:19:00.319Z,15.49
2023-05-11T09:22:06.667Z,15.53
2023-05-11T09:25:13.255Z,15.63
2023-05-11T09:28:25.535Z,15.84
2023-05-11T09:31:41.664Z,15.78
2023-05-11T09:34:46.773Z,15.79
2023-05-11T09:38:06.132Z,15.91
2023-05-11T09:41:25.302Z,15.86
2023-05-11T09:44:35.564Z,15.79
2023-05-11T09:48:02.695Z,16.05
2023-05-11T09:51:22.323Z,15.81
2023-05-11T09:54:46.499Z,16.15
2023-05-11T09:57:56.719Z,16.04
2023-05-11T10:01:02.404Z,16.17
2023-05-11T10:04:21.244Z,16.43
2023-05-11T10:07:32.514Z,16.51
2023-05-11T10:10:36.752Z,16.62
2023-05-11T10:13:42.396Z,16.22
2023-05-11T10:16:49.490Z,15.14
2023-05-11T10:19:57.258Z,15.64
2023-05-11T10:23:04.314Z,15.90
2023-05-11T10:26:14.687Z,16.28
2023-05-11T10:29:33.953Z,16.06
2023-05-11T10:32:42.474Z,16.25
2023-05-11T10:35:47.401Z,16.46
2023-05-11T10:38:51.555Z,16.39
2023-05-11T10:42:08.146Z,16.34
2023-05-11T10:45:21.640Z,16.30
2023-05-11T10:49:04.840Z,16.31
2023-05-11T10:52:35.891Z,16.06
2023-05-11T10:55:58.415Z,15.73
2023-05-11T10:59:22.908Z,15.50
2023-05-11T11:02:32.662Z,16.10
2023-05-11T11:05:38.312Z,15.74
2023-05-11T11:08:59.434Z,15.90
2023-05-11T11:12:10.944Z,15.91
2023-05-11T11:15:14.551Z,16.21
2023-05-11T11:18:23.188Z,16.53
2023-05-11T11:21:44.469Z,16.12
2023-05-11T11:24:51.383Z,15.18
2023-05-11T11:28:13.182Z,14.52
2023-05-11T11:31:25.053Z,15.04
2023-05-11T11:34:39.398Z,15.59
2023-05-11T11:38:02.187Z,15.67
2023-05-11T11:41:10.207Z,15.56
2023-05-11T11:44:22.518Z,15.72
2023-05-11T11:47:27.132Z,15.58
2023-05-11T11:50:31.656Z,15.09
2023-05-11T11:54:09.203Z,15.04
2023-05-11T11:57:49.328Z,14.70
2023-05-11T12:00:53.555Z,15.36
2023-05-11T12:04:27.723Z,15.44
2023-05-11T12:07:35.170Z,14.70
2023-05-11T12:10:39.228Z,14.24
2023-05-11T12:13:45.056Z,14.48
2023-05-11T12:17:03.277Z,13.83
2023-05-11T12:20:15.722Z,14.48
2023-05-11T12:23:20.997Z,14.58
2023-05-11T12:26:26.507Z,14.37
2023-05-11T12:29:32.398Z,13.98
2023-05-11T12:32:36.048Z,14.49
2023-05-11T12:35:40.510Z,14.95
2023-05-11T12:38:47.865Z,14.67
2023-05-11T12:41:54.268Z,14.14
2023-05-11T12:44:59.784Z,14.41
2023-05-11T12:48:04.520Z,14.30
2023-05-11T12:51:09.894Z,14.20
2023-05-11T12:54:14.128Z,14.43
2023-05-11T12:57:26.718Z,14.64
2023-05-11T13:00:32.074Z,14.39
2023-05-11T13:03:36.540Z,13.66
2023-05-11T13:06:40.512Z,13.66
2023-05-11T13:09:44.003Z,14.56
2023-05-11T13:12:52.408Z,14.13
2023-05-11T13:15:57.308Z,14.65
2023-05-11T13:19:02.072Z,14.71
2023-05-11T13:22:06.148Z,14.58
2023-05-11T13:25:10.550Z,14.37
2023-05-11T13:28:15.633Z,14.49
2023-05-11T13:31:21.150Z,14.39
2023-05-11T13:34:26.874Z,14.55
2023-05-11T13:37:30.913Z,14.80
2023-05-11T13:41:00.512Z,14.15
2023-05-11T13:44:07.585Z,14.39
2023-05-11T13:47:12.720Z,14.32
2023-05-11T13:50:17.020Z,13.74
2023-05-11T13:53:20.588Z,14.25
2023-05-11T13:56:24.769Z,14.37
2023-05-11T13:59:28.521Z,14.52
2023-05-11T14:02:35.056Z,14.68
2023-05-11T14:05:39.563Z,14.45
2023-05-11T14:08:43.489Z,14.27
2023-05-11T14:11:47.123Z,13.66
2023-05-11T14:14:51.345Z,13.12
2023-05-11T14:17:56.509Z,13.52
2023-05-11T14:21:00.764Z,13.53
2023-05-11T14:24:12.188Z,13.63
2023-05-11T14:27:17.550Z,13.87
2023-05-11T14:30:21.469Z,13.29
2023-05-11T14:33:26.674Z,13.20
2023-05-11T14:36:30.223Z,12.77
2023-05-11T14:39:34.049Z,13.13
2023-05-11T14:42:37.915Z,12.91
2023-05-11T14:45:41.731Z,12.91
2023-05-11T14:48:47.744Z,12.50
2023-05-11T14:51:51.895Z,12.81
2023-05-11T14:54:55.337Z,12.49
2023-05-11T14:57:59.328Z,12.62
2023-05-11T15:01:03.942Z,12.71
2023-05-11T15:04:10.114Z,12.79
2023-05-11T15:07:13.654Z,12.93
2023-05-11T15:10:17.479Z,12.90
2023-05-11T15:13:22.407Z,12.85
2023-05-11T15:16:27.252Z,12.52
2023-05-11T15:19:32.371Z,13.00
2023-05-11T15:22:36.304Z,12.92
2023-05-11T15:25:40.432Z,12.98
2023-05-11T15:28:46.587Z,12.76
2023-05-11T15:31:50.979Z,12.98
2023-05-11T15:35:00.164Z,12.89
2023-05-11T15:38:05.232Z,12.95
2023-05-11T15:41:09.601Z,12.78
2023-05-11T15:44:13.410Z,12.50
2023-05-11T15:47:17.948Z,12.93
2023-05-11T15:50:24.518Z,12.87
2023-05-11T15:53:28.841Z,13.10
2023-05-11T15:56:35.489Z,13.41
2023-05-11T15:59:39.461Z,13.24
2023-05-11T16:02:45.927Z,13.19
2023-05-11T16:05:51.701Z,13.17
2023-05-11T16:08:56.602Z,13.20
2023-05-11T16:12:01.017Z,12.87
2023-05-11T16:15:05.349Z,12.98
2023-05-11T16:18:11.546Z,12.85
2023-05-11T16:21:16.442Z,13.01
2023-05-11T16:24:20.386Z,13.02
2023-05-11T16:27:24.001Z,12.74
2023-05-11T16:30:28.384Z,12.99
2023-05-11T16:33:32.953Z,12.95
2023-05-11T16:36:40.524Z,12.98
2023-05-11T16:39:44.723Z,12.59
2023-05-11T16:42:49.156Z,13.20
2023-05-11T16:45:53.900Z,12.65
2023-05-11T16:48:58.744Z,13.31
2023-05-11T16:52:03.952Z,13.33
2023-05-11T16:55:08.889Z,13.37
2023-05-11T16:58:12.431Z,12.67
2023-05-11T17:01:16.241Z,12.77
2023-05-11T17:04:20.201Z,12.77
2023-05-11T17:07:36.988Z,12.73
2023-05-11T17:10:41.944Z,12.51
2023-05-11T17:13:46.005Z,12.81
2023-05-11T17:16:49.671Z,12.44
2023-05-11T17:19:53.665Z,12.17
2023-05-11T17:23:01.047Z,12.63
2023-05-11T17:26:10.141Z,12.63
2023-05-11T17:29:13.738Z,12.75
2023-05-11T17:32:17.988Z,12.62
2023-05-11T17:35:21.813Z,13.00
2023-05-11T17:38:27.442Z,12.46
2023-05-11T17:41:31.108Z,12.56
2023-05-11T17:44:35.515Z,12.61
2023-05-11T17:47:39.629Z,12.48
2023-05-11T17:50:44.558Z,12.70
2023-05-11T17:53:50.397Z,12.48
2023-05-11T17:56:54.442Z,12.74
2023-05-11T17:59:57.958Z,12.95
2023-05-11T18:03:03.040Z,13.01
2023-05-11T18:06:06.841Z,12.93
2023-05-11T18:09:12.627Z,12.96
2023-05-11T18:12:16.200Z,12.30
2023-05-11T18:15:20.639Z,12.60
2023-05-11T18:18:24.970Z,12.83
2023-05-11T18:21:29.736Z,12.36
2023-05-11T18:24:34.792Z,12.64
2023-05-11T18:27:38.956Z,12.55
2023-05-11T18:30:42.384Z,12.62
2023-05-11T18:33:47.041Z,12.64
2023-05-11T18:36:51.848Z,12.44
2023-05-11T18:39:58.265Z,12.92
2023-05-11T18:43:03.133Z,12.75
2023-05-11T18:46:12.699Z,12.70
2023-05-11T18:49:16.240Z,12.35
2023-05-11T18:52:21.327Z,12.43
2023-05-11T18:55:30.817Z,12.52
2023-05-11T18:58:39.062Z,12.33
2023-05-11T19:01:47.901Z,12.22
2023-05-11T19:04:52.709Z,12.22
2023-05-11T19:07:56.542Z,12.35
2023-05-11T19:11:07.915Z,12.37
2023-05-11T19:14:28.289Z,12.34
2023-05-11T19:17:34.054Z,12.47
2023-05-11T19:20:39.424Z,12.26
2023-05-11T19:23:44.430Z,12.43
2023-05-11T19:26:58.917Z,12.43
2023-05-11T19:30:11.137Z,12.51
2023-05-11T19:33:14.924Z,12.35
2023-05-11T19:36:19.564Z,12.38
2023-05-11T19:39:24.584Z,12.27
2023-05-11T19:42:39.409Z,12.19
2023-05-11T19:45:45.667Z,12.26
2023-05-11T19:48:50.056Z,12.32
2023-05-11T19:51:54.100Z,11.92
2023-05-11T19:54:59.557Z,12.19
2023-05-11T19:58:04.587Z,12.43
2023-05-11T20:01:10.082Z,12.55
2023-05-11T20:04:15.066Z,12.56
2023-05-11T20:07:20.527Z,12.81
2023-05-11T20:10:23.988Z,12.87
2023-05-11T20:13:29.400Z,12.21
2023-05-11T20:16:33.168Z,12.58
2023-05-11T20:19:38.036Z,12.78
2023-05-11T20:22:42.910Z,12.51
2023-05-11T20:25:46.831Z,12.75
2023-05-11T20:28:52.070Z,12.75
2023-05-11T20:31:56.049Z,12.83
2023-05-11T20:34:59.631Z,12.80
2023-05-11T20:38:03.618Z,12.96
2023-05-11T20:41:07.694Z,12.94
2023-05-11T20:44:13.991Z,12.90
2023-05-11T20:47:17.957Z,12.99
2023-05-11T20:50:22.046Z,12.72
2023-05-11T20:53:25.746Z,12.90
2023-05-11T20:56:29.417Z,12.61
2023-05-11T21:02:42.313Z,12.81
2023-05-11T21:05:46.003Z,12.85
2023-05-11T21:08:50.786Z,12.89
2023-05-11T21:11:54.310Z,12.51
2023-05-11T21:14:59.675Z,12.72
2023-05-11T21:18:03.358Z,12.62
2023-05-11T21:21:07.579Z,12.57
2023-05-11T21:24:11.289Z,12.59
2023-05-11T21:27:16.464Z,12.65
2023-05-11T21:30:21.651Z,12.65
2023-05-11T21:33:25.521Z,12.58
2023-05-11T21:36:29.044Z,12.69
2023-05-11T21:39:33.095Z,12.78
2023-05-11T21:42:36.689Z,12.68
2023-05-11T21:45:42.077Z,12.70
2023-05-11T21:48:45.595Z,12.69
2023-05-11T21:51:50.209Z,12.74
2023-05-11T21:54:53.940Z,13.17
2023-05-11T21:57:57.897Z,12.95
2023-05-11T22:01:02.832Z,13.00
2023-05-11T22:04:07.032Z,12.95
2023-05-11T22:07:10.627Z,12.87
2023-05-11T22:10:14.835Z,12.55
2023-05-11T22:13:18.358Z,12.55
2023-05-11T22:16:23.677Z,12.22
2023-05-11T22:19:27.310Z,12.40
2023-05-11T22:22:31.307Z,12.46
2023-05-11T22:25:34.779Z,12.26
2023-05-11T22:28:38.632Z,12.44
2023-05-11T22:31:45.986Z,12.33
2023-05-11T22:34:58.637Z,12.05
2023-05-11T22:38:02.612Z,12.38
2023-05-11T22:41:07.398Z,12.45
2023-05-11T22:44:10.895Z,12.22
2023-05-11T22:47:18.632Z,12.15
2023-05-11T22:50:22.952Z,12.24
2023-05-11T22:53:32.786Z,12.48
2023-05-11T22:56:40.214Z,12.43
2023-05-11T22:59:47.409Z,12.32
2023-05-11T23:02:54.263Z,12.39
2023-05-11T23:06:02.100Z,12.28
2023-05-11T23:09:09.284Z,12.16
2023-05-11T23:12:13.603Z,12.14
2023-05-11T23:15:18.131Z,11.80
2023-05-11T23:18:24.729Z,12.06
2023-05-11T23:21:33.753Z,12.07
2023-05-11T23:24:39.894Z,11.99
2023-05-11T23:27:43.397Z,11.54
2023-05-11T23:30:48.655Z,11.90
2023-05-11T23:33:53.634Z,12.05
2023-05-11T23:36:57.473Z,11.80
2023-05-11T23:40:01.289Z,12.17
2023-05-11T23:43:05.168Z,12.20
2023-05-11T23:46:08.561Z,12.14
2023-05-11T23:49:13.781Z,12.09
2023-05-11T23:52:17.387Z,12.14
2023-05-11T23:55:24.296Z,12.01
2023-05-11T23:58:27.963Z,12.15
